createdAt,value
2023-09-11T00:01:28.943Z,3.70
2023-09-11T00:04:18.101Z,3.70
2023-09-11T00:07:31.590Z,3.90
2023-09-11T00:11:01.103Z,4.20
2023-09-11T00:14:29.409Z,3.50
2023-09-11T00:18:19.075Z,4.00
2023-09-11T00:21:51.651Z,3.60
2023-09-11T00:25:14.363Z,3.90
2023-09-11T00:28:38.647Z,3.80
2023-09-11T00:32:27.285Z,3.80
2023-09-11T00:35:51.108Z,3.90
2023-09-11T00:39:04.397Z,3.90
2023-09-11T00:41:46.153Z,3.60
2023-09-11T00:44:43.167Z,3.50
2023-09-11T00:47:15.022Z,3.80
2023-09-11T00:50:13.221Z,4.90
2023-09-11T00:52:45.394Z,3.40
2023-09-11T00:55:34.539Z,3.80
2023-09-11T00:58:30.582Z,4.00
2023-09-11T01:01:22.042Z,3.80
2023-09-11T01:04:05.115Z,3.60
2023-09-11T01:06:44.197Z,3.60
2023-09-11T01:12:34.200Z,4.20
2023-09-11T01:15:29.054Z,3.40
2023-09-11T01:18:57.024Z,4.10
2023-09-11T01:22:11.397Z,4.00
2023-09-11T01:25:24.641Z,4.10
2023-09-11T01:29:01.642Z,4.00
2023-09-11T01:32:34.548Z,4.20
2023-09-11T01:35:13.768Z,3.90
2023-09-11T01:38:57.030Z,4.40
2023-09-11T01:42:26.560Z,3.70
2023-09-11T01:45:37.290Z,4.30
2023-09-11T01:49:04.699Z,4.40
2023-09-11T01:52:14.113Z,4.10
2023-09-11T01:55:26.182Z,3.60
2023-09-11T01:59:06.651Z,4.20
2023-09-11T02:02:56.597Z,4.40
2023-09-11T02:06:45.297Z,3.60
2023-09-11T02:10:20.507Z,3.80
2023-09-11T02:13:43.199Z,3.30
2023-09-11T02:17:14.141Z,3.70
2023-09-11T02:20:49.123Z,3.60
2023-09-11T02:24:21.604Z,3.80
2023-09-11T02:27:51.117Z,4.00
2023-09-11T02:30:55.303Z,3.80
2023-09-11T02:34:20.540Z,3.80
2023-09-11T02:37:29.215Z,3.20
2023-09-11T02:41:18.890Z,3.80
2023-09-11T02:44:49.153Z,4.00
2023-09-11T02:48:28.957Z,3.50
2023-09-11T02:51:41.476Z,3.80
2023-09-11T02:54:50.777Z,3.50
2023-09-11T02:58:20.283Z,3.90
2023-09-11T03:01:34.357Z,3.60
2023-09-11T03:04:19.152Z,4.50
2023-09-11T03:07:27.676Z,3.60
2023-09-11T03:10:09.157Z,4.90
2023-09-11T03:13:20.995Z,3.50
2023-09-11T03:16:38.888Z,3.90
2023-09-11T03:19:25.037Z,4.10
2023-09-11T03:22:23.931Z,3.80
2023-09-11T03:25:47.342Z,4.30
2023-09-11T03:29:37.137Z,4.10
2023-09-11T03:33:05.325Z,4.20
2023-09-11T03:36:21.357Z,4.00
2023-09-11T03:39:10.435Z,4.30
2023-09-11T03:41:49.042Z,4.30
2023-09-11T03:45:03.703Z,3.70
2023-09-11T03:47:55.678Z,3.60
2023-09-11T03:51:14.795Z,4.20
2023-09-11T03:55:04.419Z,4.20
2023-09-11T03:58:54.008Z,4.40
2023-09-11T04:02:06.155Z,4.00
2023-09-11T04:05:49.036Z,4.20
2023-09-11T04:08:59.797Z,5.00
2023-09-11T04:12:21.733Z,4.60
2023-09-11T04:15:44.030Z,4.00
2023-09-11T04:18:41.640Z,3.80
2023-09-11T04:21:51.082Z,4.10
2023-09-11T04:24:43.416Z,4.30
2023-09-11T04:27:25.064Z,3.70
2023-09-11T04:30:22.210Z,3.70
2023-09-11T04:33:06.409Z,3.80
2023-09-11T04:36:29.162Z,4.60
2023-09-11T04:39:43.671Z,4.20
2023-09-11T04:42:52.548Z,3.50
2023-09-11T04:45:36.222Z,3.70
2023-09-11T04:48:51.555Z,5.10
2023-09-11T04:51:47.265Z,4.50
2023-09-11T04:54:22.055Z,3.40
2023-09-11T04:57:18.745Z,3.50
2023-09-11T05:00:01.418Z,3.70
2023-09-11T05:02:37.189Z,3.50
2023-09-11T05:05:25.335Z,3.90
2023-09-11T05:08:07.979Z,3.90
2023-09-11T05:11:13.157Z,3.60
2023-09-11T05:14:23.383Z,3.80
2023-09-11T05:18:03.501Z,4.00
2023-09-11T05:21:38.036Z,4.00
2023-09-11T05:24:54.717Z,3.80
2023-09-11T05:28:24.117Z,4.00
2023-09-11T05:31:08.677Z,4.50
2023-09-11T05:34:37.002Z,3.20
2023-09-11T05:38:25.280Z,4.30
2023-09-11T05:41:14.480Z,3.30
2023-09-11T05:44:26.184Z,4.10
2023-09-11T05:47:38.540Z,3.70
2023-09-11T05:50:38.682Z,3.90
2023-09-11T05:54:01.199Z,3.10
2023-09-11T05:57:50.924Z,3.60
2023-09-11T06:01:28.267Z,4.20
2023-09-11T06:05:01.056Z,4.70
2023-09-11T06:08:50.493Z,3.90
2023-09-11T06:12:13.084Z,4.10
2023-09-11T06:15:50.548Z,3.90
2023-09-11T06:19:40.234Z,4.40
2023-09-11T06:23:21.246Z,3.90
2023-09-11T06:26:05.986Z,4.90
2023-09-11T06:29:11.471Z,4.00
2023-09-11T06:32:21.005Z,3.80
2023-09-11T06:35:32.976Z,4.60
2023-09-11T06:39:22.456Z,4.50
2023-09-11T06:42:15.016Z,4.70
2023-09-11T06:45:34.427Z,4.20
2023-09-11T06:48:37.018Z,4.40
2023-09-11T06:51:12.532Z,4.30
2023-09-11T06:53:55.808Z,3.60
2023-09-11T06:57:07.676Z,3.90
2023-09-11T07:00:17.393Z,4.20
2023-09-11T07:04:07.232Z,4.60
2023-09-11T07:07:29.672Z,4.60
2023-09-11T07:10:34.097Z,4.30
2023-09-11T07:13:43.632Z,5.90
2023-09-11T07:16:15.299Z,5.20
2023-09-11T07:18:52.344Z,5.00
2023-09-11T07:21:53.204Z,4.40
2023-09-11T07:25:23.648Z,5.70
2023-09-11T07:28:26.169Z,4.00
2023-09-11T07:31:55.552Z,4.50
2023-09-11T07:34:45.624Z,4.20
2023-09-11T07:37:17.778Z,6.90
2023-09-11T07:40:11.752Z,5.90
2023-09-11T07:43:49.988Z,4.40
2023-09-11T07:47:23.204Z,7.40
2023-09-11T07:50:34.532Z,6.90
2023-09-11T07:53:07.144Z,8.20
2023-09-11T07:56:23.019Z,6.30
2023-09-11T07:59:38.877Z,5.30
2023-09-11T08:03:09.937Z,5.80
2023-09-11T08:06:16.985Z,4.60
2023-09-11T08:09:19.197Z,4.50
2023-09-11T08:13:08.587Z,5.00
2023-09-11T08:16:48.154Z,5.10
2023-09-11T08:20:08.229Z,4.80
2023-09-11T08:22:36.854Z,5.00
2023-09-11T08:25:15.112Z,5.30
2023-09-11T08:28:07.104Z,4.70
2023-09-11T08:30:41.023Z,4.60
2023-09-11T08:33:23.086Z,4.00
2023-09-11T08:36:01.440Z,4.80
2023-09-11T08:38:50.769Z,5.40
2023-09-11T08:42:16.828Z,5.70
2023-09-11T08:44:48.959Z,4.70
2023-09-11T08:47:43.202Z,5.60
2023-09-11T08:50:12.665Z,4.50
2023-09-11T08:52:48.157Z,5.00
2023-09-11T08:59:03.914Z,7.60
2023-09-11T09:01:59.242Z,5.00
2023-09-11T09:04:39.213Z,5.10
2023-09-11T09:07:14.260Z,4.60
2023-09-11T09:10:46.178Z,4.20
2023-09-11T09:13:57.721Z,4.60
2023-09-11T09:16:39.019Z,5.10
2023-09-11T09:19:40.518Z,4.50
2023-09-11T09:22:53.492Z,5.30
2023-09-11T09:25:29.841Z,5.40
2023-09-11T09:28:38.206Z,4.70
2023-09-11T09:31:27.652Z,4.00
2023-09-11T09:34:00.272Z,4.20
2023-09-11T09:39:45.809Z,4.80
2023-09-11T09:42:34.602Z,4.50
2023-09-11T09:46:06.485Z,5.00
2023-09-11T09:48:35.958Z,5.30
2023-09-11T09:54:06.294Z,3.80
2023-09-11T09:56:57.049Z,4.20
2023-09-11T09:59:28.120Z,3.70
2023-09-11T10:01:57.156Z,4.40
2023-09-11T10:04:37.093Z,4.40
2023-09-11T10:07:13.211Z,4.70
2023-09-11T10:09:42.361Z,4.60
2023-09-11T10:12:16.693Z,4.90
2023-09-11T10:15:08.485Z,4.30
2023-09-11T10:17:38.769Z,5.00
2023-09-11T10:20:17.598Z,4.80
2023-09-11T10:23:13.621Z,5.00
2023-09-11T10:25:53.000Z,4.80
2023-09-11T10:28:30.389Z,4.70
2023-09-11T10:31:51.610Z,4.30
2023-09-11T10:34:37.551Z,4.40
2023-09-11T10:37:24.410Z,5.20
2023-09-11T10:39:55.820Z,3.90
2023-09-11T10:42:24.659Z,3.90
2023-09-11T10:44:54.226Z,4.40
2023-09-11T10:47:24.332Z,3.90
2023-09-11T10:49:57.668Z,4.00
2023-09-11T10:52:49.143Z,4.60
2023-09-11T10:55:19.307Z,4.70
2023-09-11T10:58:00.177Z,4.40
2023-09-11T11:00:40.174Z,4.40
2023-09-11T11:03:09.069Z,3.80
2023-09-11T11:05:38.808Z,4.40
2023-09-11T11:08:09.661Z,4.60
2023-09-11T11:10:53.188Z,3.30
2023-09-11T11:13:27.559Z,4.80
2023-09-11T11:16:20.639Z,4.20
2023-09-11T11:18:53.491Z,4.60
2023-09-11T11:21:22.505Z,4.60
2023-09-11T11:24:01.623Z,4.30
2023-09-11T11:26:39.152Z,3.50
2023-09-11T11:29:08.307Z,4.30
2023-09-11T11:31:38.455Z,4.00
2023-09-11T11:34:08.136Z,4.40
2023-09-11T11:36:40.144Z,4.30
2023-09-11T11:39:09.393Z,3.80
2023-09-11T11:41:38.780Z,4.30
2023-09-11T11:44:08.028Z,4.20
2023-09-11T11:46:36.878Z,4.40
2023-09-11T11:49:05.678Z,4.90
2023-09-11T11:51:34.408Z,4.60
2023-09-11T11:54:23.476Z,4.80
2023-09-11T11:56:56.970Z,4.30
2023-09-11T11:59:52.962Z,4.90
2023-09-11T12:02:28.651Z,5.50
2023-09-11T12:04:57.400Z,4.60
2023-09-11T12:07:45.326Z,4.30
2023-09-11T12:10:45.545Z,4.50
2023-09-11T12:13:42.975Z,4.40
2023-09-11T12:16:31.320Z,4.70
2023-09-11T12:19:05.935Z,4.00
2023-09-11T12:21:49.857Z,4.30
2023-09-11T12:24:20.805Z,4.20
2023-09-11T12:26:49.499Z,4.30
2023-09-11T12:29:24.433Z,4.30
2023-09-11T12:31:53.250Z,4.30
2023-09-11T12:34:21.781Z,4.50
2023-09-11T12:36:50.465Z,4.80
2023-09-11T12:39:19.516Z,4.80
2023-09-11T12:41:48.570Z,4.80
2023-09-11T12:44:37.554Z,5.20
2023-09-11T12:47:06.974Z,5.20
2023-09-11T12:49:35.873Z,4.40
2023-09-11T12:52:08.088Z,4.80
2023-09-11T12:54:37.068Z,4.30
2023-09-11T12:57:08.728Z,4.10
2023-09-11T12:59:40.460Z,4.20
2023-09-11T13:02:12.488Z,4.70
2023-09-11T13:04:44.719Z,4.10
2023-09-11T13:07:13.581Z,4.10
2023-09-11T13:09:42.842Z,4.70
2023-09-11T13:12:17.230Z,4.30
2023-09-11T13:15:07.345Z,4.80
2023-09-11T13:17:37.869Z,4.90
2023-09-11T13:20:07.326Z,5.00
2023-09-11T13:22:36.176Z,4.80
2023-09-11T13:25:05.840Z,5.30
2023-09-11T13:27:41.073Z,5.70
2023-09-11T13:30:10.406Z,4.80
2023-09-11T13:32:39.478Z,4.60
2023-09-11T13:35:08.970Z,5.00
2023-09-11T13:37:37.819Z,6.10
2023-09-11T13:40:17.650Z,4.60
2023-09-11T13:42:46.332Z,4.40
2023-09-11T13:45:21.494Z,4.80
2023-09-11T13:47:51.426Z,4.50
2023-09-11T13:50:20.328Z,4.00
2023-09-11T13:52:48.949Z,3.80
2023-09-11T13:55:17.911Z,4.30
2023-09-11T13:57:46.537Z,4.50
2023-09-11T14:00:15.723Z,4.60
2023-09-11T14:02:47.767Z,3.60
2023-09-11T14:05:16.529Z,3.70
2023-09-11T14:07:45.421Z,4.80
2023-09-11T14:10:14.263Z,4.80
2023-09-11T14:12:42.873Z,4.70
2023-09-11T14:15:13.941Z,4.10
2023-09-11T14:17:51.093Z,4.70
2023-09-11T14:20:28.729Z,4.60
2023-09-11T14:23:17.872Z,4.50
2023-09-11T14:26:22.919Z,4.50
2023-09-11T14:29:02.732Z,4.20
2023-09-11T14:32:15.862Z,3.90
2023-09-11T14:35:22.011Z,4.80
2023-09-11T14:37:50.884Z,4.50
2023-09-11T14:40:19.623Z,4.70
2023-09-11T14:43:11.452Z,4.30
2023-09-11T14:45:40.207Z,4.40
2023-09-11T14:48:11.363Z,4.40
2023-09-11T14:50:40.372Z,4.30
2023-09-11T14:53:09.109Z,4.10
2023-09-11T14:55:37.839Z,4.40
2023-09-11T14:58:27.723Z,4.80
2023-09-11T15:01:10.305Z,4.30
2023-09-11T15:03:51.653Z,4.30
2023-09-11T15:06:28.389Z,4.90
2023-09-11T15:09:02.519Z,7.00
2023-09-11T15:11:56.985Z,6.30
2023-09-11T15:14:35.156Z,6.30
2023-09-11T15:17:04.466Z,6.40
2023-09-11T15:19:33.279Z,6.50
2023-09-11T15:22:02.242Z,5.80
2023-09-11T15:24:31.072Z,5.20
2023-09-11T15:27:02.124Z,5.40
2023-09-11T15:29:31.458Z,4.40
2023-09-11T15:32:12.742Z,5.20
2023-09-11T15:34:43.762Z,5.10
2023-09-11T15:37:37.331Z,6.40
2023-09-11T15:40:10.179Z,5.50
2023-09-11T15:42:39.069Z,6.20
2023-09-11T15:45:16.195Z,4.70
2023-09-11T15:48:02.387Z,4.80
2023-09-11T15:50:33.791Z,4.70
2023-09-11T15:53:41.701Z,4.60
2023-09-11T15:56:25.490Z,4.80
2023-09-11T16:00:01.195Z,4.20
2023-09-11T16:03:03.850Z,4.10
2023-09-11T16:05:46.806Z,5.50
2023-09-11T16:08:38.949Z,6.50
2023-09-11T16:11:43.918Z,12.00
2023-09-11T16:14:49.014Z,17.60
2023-09-11T16:17:52.495Z,16.70
2023-09-11T16:21:41.492Z,14.00
2023-09-11T16:24:38.466Z,8.60
2023-09-11T16:28:00.656Z,5.90
2023-09-11T16:31:33.228Z,8.50
2023-09-11T16:34:45.745Z,10.80
2023-09-11T16:38:18.031Z,14.90
2023-09-11T16:41:30.486Z,16.80
2023-09-11T16:44:53.318Z,22.00
2023-09-11T16:48:25.991Z,15.90
2023-09-11T16:51:41.082Z,15.60
2023-09-11T16:58:43.001Z,19.20
2023-09-11T17:01:52.371Z,19.60
2023-09-11T17:05:01.855Z,13.40
2023-09-11T17:08:41.314Z,13.90
2023-09-11T17:12:03.468Z,13.40
2023-09-11T17:15:32.906Z,13.00
2023-09-11T17:19:22.334Z,10.30
2023-09-11T17:23:01.819Z,15.20
2023-09-11T17:26:30.926Z,12.80
2023-09-11T17:29:10.017Z,10.20
2023-09-11T17:31:56.101Z,11.40
2023-09-11T17:35:25.404Z,12.10
2023-09-11T17:38:54.675Z,9.70
2023-09-11T17:44:41.285Z,7.40
2023-09-11T17:47:35.690Z,6.90
2023-09-11T17:50:29.847Z,5.90
2023-09-11T17:53:29.066Z,7.20
2023-09-11T17:56:35.732Z,7.40
2023-09-11T17:59:48.019Z,6.90
2023-09-11T18:03:08.774Z,7.30
2023-09-11T18:06:21.363Z,7.40
2023-09-11T18:10:10.894Z,6.20
2023-09-11T18:12:43.048Z,6.60
2023-09-11T18:16:11.743Z,5.90
2023-09-11T18:19:00.884Z,5.30
2023-09-11T18:21:33.311Z,6.50
2023-09-11T18:24:05.443Z,4.60
2023-09-11T18:26:38.074Z,6.20
2023-09-11T18:29:18.272Z,5.30
2023-09-11T18:32:12.759Z,4.80
2023-09-11T18:34:59.227Z,5.30
2023-09-11T18:38:25.096Z,5.10
2023-09-11T18:41:34.835Z,5.10
2023-09-11T18:44:03.725Z,5.60
2023-09-11T18:47:36.003Z,5.60
2023-09-11T18:50:58.864Z,5.80
2023-09-11T18:54:28.492Z,5.50
2023-09-11T18:58:03.459Z,5.50
2023-09-11T19:01:47.469Z,5.20
2023-09-11T19:05:37.965Z,6.20
2023-09-11T19:09:07.357Z,4.50
2023-09-11T19:12:36.879Z,5.80
2023-09-11T19:16:26.677Z,4.50
2023-09-11T19:19:53.589Z,4.90
2023-09-11T19:23:34.710Z,4.90
2023-09-11T19:27:04.490Z,6.00
2023-09-11T19:30:54.514Z,5.30
2023-09-11T19:34:15.158Z,5.40
2023-09-11T19:37:58.345Z,4.50
2023-09-11T19:41:23.277Z,5.10
2023-09-11T19:44:14.714Z,4.50
2023-09-11T19:48:04.577Z,4.90
2023-09-11T19:51:30.203Z,4.50
2023-09-11T19:54:58.610Z,4.40
2023-09-11T19:58:28.060Z,5.10
2023-09-11T20:02:17.803Z,4.60
2023-09-11T20:06:08.215Z,4.00
2023-09-11T20:09:58.028Z,4.20
2023-09-11T20:13:47.561Z,4.80
2023-09-11T20:17:35.696Z,4.90
2023-09-11T20:21:25.553Z,4.00
2023-09-11T20:25:15.025Z,4.70
2023-09-11T20:28:45.413Z,3.90
2023-09-11T20:32:24.642Z,4.40
2023-09-11T20:36:14.511Z,4.50
2023-09-11T20:40:06.979Z,4.10
2023-09-11T20:43:04.193Z,3.80
2023-09-11T20:46:53.818Z,4.30
2023-09-11T20:50:43.649Z,4.30
2023-09-11T20:53:35.438Z,4.40
2023-09-11T20:57:24.686Z,4.50
2023-09-11T21:00:37.545Z,3.80
2023-09-11T21:04:27.665Z,4.00
2023-09-11T21:08:17.499Z,4.50
2023-09-11T21:12:06.858Z,4.00
2023-09-11T21:15:27.725Z,4.40
2023-09-11T21:19:17.570Z,4.50
2023-09-11T21:22:31.847Z,4.80
2023-09-11T21:26:04.235Z,4.00
2023-09-11T21:29:43.702Z,4.50
2023-09-11T21:32:44.393Z,4.20
2023-09-11T21:36:07.817Z,4.30
2023-09-11T21:39:47.432Z,4.50
2023-09-11T21:43:37.232Z,4.20
2023-09-11T21:47:06.800Z,5.00
2023-09-11T21:50:36.302Z,5.00
2023-09-11T21:54:14.892Z,3.70
2023-09-11T21:58:00.122Z,3.70
2023-09-11T22:01:31.607Z,4.30
2023-09-11T22:05:11.013Z,4.30
2023-09-11T22:08:39.034Z,4.30
2023-09-11T22:12:20.300Z,4.00
2023-09-11T22:15:48.816Z,3.70
2023-09-11T22:19:38.274Z,4.00
2023-09-11T22:23:27.892Z,4.20
2023-09-11T22:26:19.596Z,4.20
2023-09-11T22:29:40.044Z,4.10
2023-09-11T22:33:08.033Z,4.50
2023-09-11T22:36:57.545Z,4.00
2023-09-11T22:40:22.591Z,4.70
2023-09-11T22:43:52.018Z,4.10
2023-09-11T22:47:31.515Z,4.10
2023-09-11T22:51:19.850Z,4.70
2023-09-11T22:54:37.928Z,3.70
2023-09-11T22:58:12.940Z,4.00
2023-09-11T23:01:48.759Z,4.30
2023-09-11T23:04:46.352Z,4.60
2023-09-11T23:08:06.725Z,4.90
2023-09-11T23:11:14.415Z,4.70
2023-09-11T23:14:26.703Z,4.20
2023-09-11T23:17:56.215Z,4.90
2023-09-11T23:21:37.228Z,4.20
2023-09-11T23:25:18.129Z,4.30
2023-09-11T23:31:38.169Z,4.40
2023-09-11T23:34:10.140Z,4.60
2023-09-11T23:37:41.449Z,4.40
2023-09-11T23:40:50.698Z,4.40
2023-09-11T23:43:31.358Z,4.50
2023-09-11T23:46:23.456Z,5.00
2023-09-11T23:49:25.197Z,4.20
2023-09-11T23:53:08.679Z,3.60
2023-09-11T23:56:58.075Z,4.90
